createdAt,value
2018-03-21T00:02:01.152Z,47.50
2018-03-21T00:04:28.617Z,47.10
2018-03-21T00:06:56.126Z,47.40
2018-03-21T00:09:24.345Z,47.50
2018-03-21T00:11:51.822Z,47.20
2018-03-21T00:14:19.287Z,47.50
2018-03-21T00:16:46.766Z,47.20
2018-03-21T00:19:14.223Z,47.30
2018-03-21T00:21:41.726Z,47.40
2018-03-21T00:24:09.253Z,47.40
2018-03-21T00:26:36.806Z,47.60
2018-03-21T00:29:05.170Z,47.80
2018-03-21T00:31:32.647Z,47.70
2018-03-21T00:34:00.133Z,47.50
2018-03-21T00:36:28.374Z,47.80
2018-03-21T00:38:55.856Z,47.40
2018-03-21T00:41:23.325Z,47.40
2018-03-21T00:43:50.822Z,47.70
2018-03-21T00:46:18.285Z,47.80
2018-03-21T00:48:45.843Z,47.90
2018-03-21T00:51:13.361Z,47.60
2018-03-21T00:53:41.600Z,48.20
2018-03-21T00:56:09.236Z,47.90
2018-03-21T00:58:36.757Z,47.80
2018-03-21T01:01:04.231Z,47.90
2018-03-21T01:03:31.708Z,47.70
2018-03-21T01:05:59.176Z,47.90
2018-03-21T01:08:26.662Z,47.50
2018-03-21T01:10:54.131Z,47.60
2018-03-21T01:13:21.649Z,47.50
2018-03-21T01:15:49.125Z,47.60
2018-03-21T01:18:16.587Z,47.80
2018-03-21T01:20:44.073Z,47.50
2018-03-21T01:23:11.548Z,47.30
2018-03-21T01:25:39.050Z,47.40
2018-03-21T01:28:06.517Z,47.40
2018-03-21T01:30:34.052Z,47.60
2018-03-21T01:33:01.508Z,47.50
2018-03-21T01:35:29.068Z,47.50
2018-03-21T01:37:56.543Z,47.40
2018-03-21T01:40:24.021Z,47.50
2018-03-21T01:42:51.489Z,47.50
2018-03-21T01:45:18.961Z,47.50
2018-03-21T01:47:46.413Z,47.40
2018-03-21T01:50:13.922Z,47.40
2018-03-21T01:52:41.386Z,47.40
2018-03-21T01:55:08.865Z,47.40
2018-03-21T01:57:36.409Z,47.40
2018-03-21T02:00:03.909Z,47.70
2018-03-21T02:02:31.371Z,47.50
2018-03-21T02:04:58.848Z,47.40
2018-03-21T02:07:26.307Z,47.40
2018-03-21T02:09:53.814Z,47.30
2018-03-21T02:12:21.299Z,47.30
2018-03-21T02:14:48.802Z,47.30
2018-03-21T02:17:16.342Z,47.70
2018-03-21T02:19:43.809Z,47.80
2018-03-21T02:22:11.296Z,47.70
2018-03-21T02:24:39.541Z,47.80
2018-03-21T02:27:07.043Z,47.50
2018-03-21T02:29:34.637Z,47.40
2018-03-21T02:32:02.932Z,47.60
2018-03-21T02:34:31.153Z,48.50
2018-03-21T02:36:58.636Z,47.60
2018-03-21T02:39:26.119Z,47.90
2018-03-21T02:41:53.610Z,48.00
2018-03-21T02:44:21.076Z,47.80
2018-03-21T02:46:48.572Z,47.90
2018-03-21T02:49:16.805Z,48.50
2018-03-21T02:51:44.305Z,48.10
2018-03-21T02:54:11.784Z,47.80
2018-03-21T02:56:39.284Z,47.70
2018-03-21T02:59:06.785Z,47.90
2018-03-21T03:01:34.339Z,47.80
2018-03-21T03:04:01.898Z,47.80
2018-03-21T03:06:29.390Z,47.80
2018-03-21T03:08:56.861Z,47.80
2018-03-21T03:11:24.330Z,47.80
2018-03-21T03:13:51.842Z,47.70
2018-03-21T03:16:19.347Z,48.10
2018-03-21T03:18:47.730Z,48.00
2018-03-21T03:21:15.948Z,48.40
2018-03-21T03:23:43.425Z,48.30
2018-03-21T03:26:10.888Z,47.80
2018-03-21T03:28:38.374Z,47.90
2018-03-21T03:31:05.835Z,48.00
2018-03-21T03:33:33.354Z,47.80
2018-03-21T03:36:00.912Z,48.30
2018-03-21T03:38:28.404Z,47.90
2018-03-21T03:40:55.866Z,47.80
2018-03-21T03:43:23.355Z,47.90
2018-03-21T03:45:51.599Z,48.20
2018-03-21T03:48:19.081Z,47.90
2018-03-21T03:50:46.586Z,48.10
2018-03-21T03:53:15.541Z,48.20
2018-03-21T03:55:43.027Z,48.10
2018-03-21T03:58:11.373Z,48.00
2018-03-21T04:00:38.866Z,48.20
2018-03-21T04:03:06.339Z,47.90
2018-03-21T04:05:33.814Z,47.70
2018-03-21T04:08:01.278Z,47.60
2018-03-21T04:10:28.771Z,47.70
2018-03-21T04:12:56.243Z,47.50
2018-03-21T04:15:23.726Z,47.60
2018-03-21T04:17:51.288Z,47.80
2018-03-21T04:20:18.773Z,48.00
2018-03-21T04:22:46.266Z,47.80
2018-03-21T04:25:14.520Z,48.10
2018-03-21T04:27:41.985Z,47.60
2018-03-21T04:30:09.446Z,47.60
2018-03-21T04:32:36.934Z,47.50
2018-03-21T04:35:04.412Z,47.80
2018-03-21T04:37:31.914Z,47.40
2018-03-21T04:40:00.152Z,47.50
2018-03-21T04:42:28.504Z,47.80
2018-03-21T04:44:56.079Z,47.40
2018-03-21T04:47:23.611Z,47.30
2018-03-21T04:49:51.065Z,47.20
2018-03-21T04:52:18.542Z,47.50
2018-03-21T04:54:46.041Z,47.50
2018-03-21T04:57:14.300Z,47.60
2018-03-21T04:59:41.761Z,47.30
2018-03-21T05:02:09.264Z,47.60
2018-03-21T05:04:36.751Z,47.20
2018-03-21T05:07:04.986Z,47.60
2018-03-21T05:09:32.450Z,47.20
2018-03-21T05:11:59.930Z,47.20
2018-03-21T05:14:27.395Z,47.10
2018-03-21T05:16:54.872Z,47.10
2018-03-21T05:19:22.330Z,47.10
2018-03-21T05:21:49.809Z,47.50
2018-03-21T05:24:17.277Z,47.10
2018-03-21T05:26:44.800Z,47.10
2018-03-21T05:29:13.058Z,47.40
2018-03-21T05:31:40.563Z,47.20
2018-03-21T05:34:08.799Z,47.40
2018-03-21T05:36:36.326Z,47.10
2018-03-21T05:39:04.557Z,47.40
2018-03-21T05:41:32.013Z,47.30
2018-03-21T05:43:59.558Z,47.10
2018-03-21T05:46:28.600Z,47.40
2018-03-21T05:48:56.099Z,47.30
2018-03-21T05:51:24.337Z,47.40
2018-03-21T05:53:52.660Z,47.10
2018-03-21T05:56:20.126Z,47.30
2018-03-21T05:58:47.606Z,47.10
2018-03-21T06:01:15.064Z,47.60
2018-03-21T06:03:42.576Z,47.50
2018-03-21T06:06:10.052Z,47.40
2018-03-21T06:08:38.355Z,47.40
2018-03-21T06:11:05.897Z,47.20
2018-03-21T06:13:33.489Z,47.60
2018-03-21T06:16:00.947Z,47.80
2018-03-21T06:18:28.456Z,47.80
2018-03-21T06:20:55.913Z,47.80
2018-03-21T06:23:24.137Z,48.00
2018-03-21T06:25:51.614Z,48.00
2018-03-21T06:28:19.086Z,47.90
2018-03-21T06:30:46.572Z,47.80
2018-03-21T06:33:14.058Z,47.90
2018-03-21T06:35:41.584Z,48.00
2018-03-21T06:38:09.062Z,48.50
2018-03-21T06:40:36.542Z,48.00
2018-03-21T06:43:04.006Z,48.20
2018-03-21T06:45:31.494Z,48.00
2018-03-21T06:47:59.732Z,48.40
2018-03-21T06:50:27.986Z,48.00
2018-03-21T06:52:55.486Z,47.90
2018-03-21T06:55:23.718Z,47.90
2018-03-21T06:57:51.189Z,47.50
2018-03-21T07:00:18.663Z,47.40
2018-03-21T07:02:46.147Z,47.40
2018-03-21T07:05:13.607Z,47.20
2018-03-21T07:07:41.086Z,46.60
2018-03-21T07:10:09.647Z,46.20
2018-03-21T07:12:37.130Z,45.50
2018-03-21T07:15:16.640Z,45.20
2018-03-21T07:17:44.143Z,45.00
2018-03-21T07:20:11.639Z,44.30
2018-03-21T07:22:39.118Z,43.70
2018-03-21T07:25:06.574Z,43.70
2018-03-21T07:27:34.049Z,43.50
2018-03-21T07:30:01.527Z,43.50
2018-03-21T07:32:29.007Z,42.70
2018-03-21T07:34:56.539Z,42.50
2018-03-21T07:37:24.856Z,40.00
2018-03-21T07:39:52.320Z,40.00
2018-03-21T07:42:19.790Z,39.80
2018-03-21T07:44:47.342Z,39.80
2018-03-21T07:47:14.811Z,38.50
2018-03-21T07:49:42.302Z,39.10
2018-03-21T07:52:09.808Z,38.10
2018-03-21T07:54:37.285Z,39.20
2018-03-21T07:57:04.839Z,38.30
2018-03-21T07:59:32.327Z,36.80
2018-03-21T08:01:59.802Z,36.60
2018-03-21T08:04:34.174Z,36.40
2018-03-21T08:07:01.664Z,36.00
2018-03-21T08:09:29.193Z,35.10
2018-03-21T08:11:57.433Z,35.30
2018-03-21T08:14:25.050Z,35.20
2018-03-21T08:16:52.593Z,33.80
2018-03-21T08:19:20.100Z,34.10
2018-03-21T08:21:48.342Z,33.40
2018-03-21T08:24:15.889Z,33.30
2018-03-21T08:26:43.381Z,32.60
2018-03-21T08:29:10.851Z,32.40
2018-03-21T08:31:38.367Z,32.00
2018-03-21T08:34:07.369Z,30.00
2018-03-21T08:36:34.874Z,30.00
2018-03-21T08:39:02.387Z,29.90
2018-03-21T08:41:30.001Z,29.80
2018-03-21T08:43:57.465Z,29.80
2018-03-21T08:46:25.008Z,29.70
2018-03-21T08:48:52.479Z,29.30
2018-03-21T08:51:19.958Z,28.00
2018-03-21T08:53:47.425Z,28.60
2018-03-21T08:56:14.978Z,28.40
2018-03-21T08:58:42.460Z,28.40
2018-03-21T09:01:09.930Z,27.40
2018-03-21T09:03:37.486Z,26.40
2018-03-21T09:06:05.019Z,26.10
2018-03-21T09:08:32.542Z,26.10
2018-03-21T09:11:00.041Z,26.50
2018-03-21T09:13:27.579Z,25.50
2018-03-21T09:15:55.051Z,26.40
2018-03-21T09:18:22.624Z,25.80
2018-03-21T09:20:50.109Z,25.00
2018-03-21T09:23:18.430Z,25.30
2018-03-21T09:25:46.689Z,23.60
2018-03-21T09:28:14.260Z,23.40
2018-03-21T09:30:41.753Z,23.10
2018-03-21T09:33:09.579Z,23.60
2018-03-21T09:35:37.229Z,23.30
2018-03-21T09:38:05.528Z,21.50
2018-03-21T09:40:33.077Z,21.40
2018-03-21T09:43:01.309Z,21.50
2018-03-21T09:45:28.902Z,21.40
2018-03-21T09:47:56.362Z,22.30
2018-03-21T09:50:23.860Z,22.50
2018-03-21T09:52:51.337Z,22.60
2018-03-21T09:55:18.951Z,22.10
2018-03-21T09:57:46.406Z,21.30
2018-03-21T10:00:14.664Z,20.30
2018-03-21T10:02:42.945Z,21.00
2018-03-21T10:05:10.486Z,20.90
2018-03-21T10:07:38.008Z,19.20
2018-03-21T10:10:05.486Z,20.00
2018-03-21T10:12:32.960Z,20.20
2018-03-21T10:15:01.213Z,19.80
2018-03-21T10:17:28.718Z,19.20
2018-03-21T10:19:56.186Z,19.70
2018-03-21T10:22:23.674Z,18.90
2018-03-21T10:24:51.944Z,20.10
2018-03-21T10:27:19.479Z,19.90
2018-03-21T10:29:46.969Z,17.90
2018-03-21T10:32:14.469Z,18.40
2018-03-21T10:34:42.714Z,18.70
2018-03-21T10:37:10.202Z,18.60
2018-03-21T10:39:37.667Z,18.90
2018-03-21T10:42:05.192Z,18.70
2018-03-21T10:44:32.699Z,18.10
2018-03-21T10:47:00.206Z,16.80
2018-03-21T10:49:27.678Z,16.90
2018-03-21T10:51:56.694Z,15.40
2018-03-21T10:54:24.951Z,16.30
2018-03-21T10:56:52.431Z,16.20
2018-03-21T10:59:19.909Z,16.20
2018-03-21T11:01:47.445Z,16.40
2018-03-21T11:04:14.939Z,16.20
2018-03-21T11:06:42.402Z,15.90
2018-03-21T11:09:09.907Z,15.40
2018-03-21T11:11:38.216Z,14.80
2018-03-21T11:14:05.707Z,14.70
2018-03-21T11:16:33.248Z,14.80
2018-03-21T11:19:01.601Z,13.90
2018-03-21T11:21:29.142Z,13.80
2018-03-21T11:23:56.630Z,12.50
2018-03-21T11:26:24.123Z,12.50
2018-03-21T11:28:51.589Z,12.30
2018-03-21T11:31:19.113Z,12.60
2018-03-21T11:33:46.596Z,11.80
2018-03-21T11:36:14.092Z,11.80
2018-03-21T11:38:42.367Z,11.90
2018-03-21T11:41:09.862Z,11.80
2018-03-21T11:43:37.344Z,10.60
2018-03-21T11:46:04.856Z,10.20
2018-03-21T11:48:32.442Z,10.90
2018-03-21T11:50:59.931Z,11.50
2018-03-21T11:53:27.404Z,10.30
2018-03-21T11:55:54.935Z,10.00
2018-03-21T11:58:22.401Z,9.50
2018-03-21T12:00:50.660Z,10.20
2018-03-21T12:03:18.170Z,10.20
2018-03-21T12:05:45.791Z,9.20
2018-03-21T12:08:13.349Z,8.80
2018-03-21T12:10:40.848Z,10.00
2018-03-21T12:13:08.338Z,10.10
2018-03-21T12:15:36.568Z,9.40
2018-03-21T12:18:04.062Z,9.20
2018-03-21T12:20:32.285Z,8.90
2018-03-21T12:23:00.544Z,8.40
2018-03-21T12:25:28.022Z,8.30
2018-03-21T12:27:55.507Z,8.70
2018-03-21T12:30:22.982Z,9.30
2018-03-21T12:32:50.515Z,8.50
2018-03-21T12:35:17.979Z,8.90
2018-03-21T12:37:45.467Z,8.40
2018-03-21T12:40:12.947Z,8.20
2018-03-21T12:42:40.569Z,8.60
2018-03-21T12:45:08.035Z,8.80
2018-03-21T12:47:35.547Z,8.50
2018-03-21T12:50:03.109Z,8.60
2018-03-21T12:52:30.543Z,8.60
2018-03-21T12:54:58.821Z,7.90
2018-03-21T12:57:27.054Z,7.20
2018-03-21T12:59:54.540Z,7.10
2018-03-21T13:02:22.044Z,6.90
2018-03-21T13:04:49.502Z,7.30
2018-03-21T13:07:17.010Z,7.60
2018-03-21T13:09:44.495Z,7.70
2018-03-21T13:12:11.970Z,7.80
2018-03-21T13:14:39.466Z,6.60
2018-03-21T13:17:06.932Z,6.80
2018-03-21T13:19:34.438Z,7.30
2018-03-21T13:22:01.917Z,7.20
2018-03-21T13:24:30.329Z,7.10
2018-03-21T13:26:58.558Z,7.20
2018-03-21T13:29:26.785Z,7.10
2018-03-21T13:31:54.269Z,6.90
2018-03-21T13:34:22.511Z,6.90
2018-03-21T13:36:50.013Z,6.80
2018-03-21T13:39:17.493Z,6.10
2018-03-21T13:41:45.742Z,6.50
2018-03-21T13:44:13.209Z,6.50
2018-03-21T13:46:40.910Z,6.60
2018-03-21T13:49:08.386Z,6.80
2018-03-21T13:51:35.881Z,6.50
2018-03-21T13:54:03.363Z,5.80
2018-03-21T13:56:30.856Z,5.80
2018-03-21T13:58:58.319Z,5.90
2018-03-21T14:01:25.803Z,6.10
2018-03-21T14:03:53.347Z,5.70
2018-03-21T14:06:20.838Z,6.00
2018-03-21T14:08:48.306Z,6.30
2018-03-21T14:11:15.844Z,6.20
2018-03-21T14:13:44.090Z,6.20
2018-03-21T14:16:11.574Z,6.10
2018-03-21T14:18:39.068Z,6.20
2018-03-21T14:21:06.594Z,6.30
2018-03-21T14:23:34.062Z,5.90
2018-03-21T14:26:01.551Z,6.20
2018-03-21T14:28:29.029Z,6.10
2018-03-21T14:30:56.497Z,6.10
2018-03-21T14:33:23.986Z,6.20
2018-03-21T14:35:51.446Z,6.10
2018-03-21T14:38:18.933Z,6.40
2018-03-21T14:40:46.407Z,6.20
2018-03-21T14:43:15.203Z,6.60
2018-03-21T14:45:42.716Z,6.30
2018-03-21T14:48:10.215Z,6.70
2018-03-21T14:50:37.686Z,6.00
2018-03-21T14:53:05.203Z,5.80
2018-03-21T14:55:33.451Z,5.90
2018-03-21T14:58:00.951Z,5.80
2018-03-21T15:00:28.418Z,6.00
2018-03-21T15:02:55.879Z,5.80
2018-03-21T15:05:23.362Z,5.90
2018-03-21T15:07:50.834Z,5.60
2018-03-21T15:10:18.306Z,5.90
2018-03-21T15:12:46.616Z,6.00
2018-03-21T15:15:14.106Z,5.90
2018-03-21T15:17:41.579Z,5.60
2018-03-21T15:20:09.053Z,5.90
2018-03-21T15:22:36.549Z,6.30
2018-03-21T15:25:04.023Z,6.50
2018-03-21T15:27:31.563Z,6.90
2018-03-21T15:29:59.104Z,7.00
2018-03-21T15:32:26.550Z,7.00
2018-03-21T15:34:54.039Z,7.00
2018-03-21T15:37:22.318Z,7.20
2018-03-21T15:39:49.826Z,7.20
2018-03-21T15:42:17.286Z,7.40
2018-03-21T15:44:44.760Z,7.50
2018-03-21T15:47:12.250Z,7.30
2018-03-21T15:49:39.719Z,7.20
2018-03-21T15:52:07.205Z,7.20
2018-03-21T15:54:34.670Z,7.10
2018-03-21T15:57:02.178Z,7.60
2018-03-21T15:59:29.658Z,7.80
2018-03-21T16:01:57.141Z,8.20
2018-03-21T16:04:25.395Z,8.50
2018-03-21T16:06:52.918Z,8.40
2018-03-21T16:09:20.398Z,8.70
2018-03-21T16:11:47.951Z,8.90
2018-03-21T16:14:16.191Z,9.30
2018-03-21T16:16:43.690Z,9.30
2018-03-21T16:19:11.488Z,9.60
2018-03-21T16:21:39.750Z,9.80
2018-03-21T16:24:07.221Z,9.80
2018-03-21T16:26:36.651Z,9.60
2018-03-21T16:29:04.146Z,10.50
2018-03-21T16:31:31.696Z,10.20
2018-03-21T16:33:59.977Z,10.30
2018-03-21T16:36:27.449Z,10.30
2018-03-21T16:38:54.926Z,10.30
2018-03-21T16:41:23.251Z,10.50
2018-03-21T16:43:50.745Z,10.50
2018-03-21T16:46:18.225Z,10.40
2018-03-21T16:48:46.686Z,10.50
2018-03-21T16:51:14.174Z,10.80
2018-03-21T16:53:41.762Z,10.80
2018-03-21T16:56:09.288Z,11.00
2018-03-21T16:58:36.800Z,11.00
2018-03-21T17:01:04.275Z,11.20
2018-03-21T17:03:31.782Z,11.30
2018-03-21T17:06:01.137Z,11.60
2018-03-21T17:08:28.619Z,11.70
2018-03-21T17:10:57.035Z,11.80
2018-03-21T17:13:24.518Z,12.00
2018-03-21T17:15:52.010Z,12.00
2018-03-21T17:18:20.248Z,12.40
2018-03-21T17:20:47.741Z,12.30
2018-03-21T17:23:15.972Z,12.40
2018-03-21T17:25:44.265Z,12.70
2018-03-21T17:28:11.802Z,12.70
2018-03-21T17:30:40.121Z,13.00
2018-03-21T17:33:07.722Z,13.10
2018-03-21T17:35:35.226Z,13.20
2018-03-21T17:38:02.711Z,13.30
2018-03-21T17:40:30.250Z,13.40
2018-03-21T17:42:57.744Z,13.50
2018-03-21T17:45:25.217Z,13.60
2018-03-21T17:47:52.711Z,13.70
2018-03-21T17:50:20.949Z,13.90
2018-03-21T17:52:48.582Z,13.90
2018-03-21T17:55:16.844Z,13.70
2018-03-21T17:57:44.349Z,13.70
2018-03-21T18:00:11.833Z,13.80
2018-03-21T18:02:39.314Z,13.90
2018-03-21T18:05:06.786Z,13.60
2018-03-21T18:07:34.289Z,13.80
2018-03-21T18:10:01.983Z,13.80
2018-03-21T18:12:30.254Z,13.90
2018-03-21T18:14:57.734Z,13.90
2018-03-21T18:17:26.011Z,14.00
2018-03-21T18:19:53.546Z,14.10
2018-03-21T18:22:21.182Z,14.20
2018-03-21T18:24:49.475Z,14.60
2018-03-21T18:27:17.745Z,15.20
2018-03-21T18:29:45.232Z,14.70
2018-03-21T18:32:12.816Z,14.90
2018-03-21T18:34:41.142Z,15.30
2018-03-21T18:37:08.620Z,15.20
2018-03-21T18:39:36.106Z,15.70
2018-03-21T18:42:04.381Z,16.10
2018-03-21T18:44:31.919Z,15.70
2018-03-21T18:46:59.391Z,16.40
2018-03-21T18:49:26.910Z,16.00
2018-03-21T18:51:54.369Z,16.60
2018-03-21T18:54:21.857Z,16.80
2018-03-21T18:56:49.373Z,17.30
2018-03-21T18:59:16.881Z,17.60
2018-03-21T19:01:44.369Z,17.60
2018-03-21T19:04:11.850Z,17.90
2018-03-21T19:06:39.376Z,18.30
2018-03-21T19:09:06.890Z,18.30
2018-03-21T19:11:34.385Z,18.50
2018-03-21T19:14:02.626Z,19.00
2018-03-21T19:16:30.110Z,18.90
2018-03-21T19:18:57.606Z,19.30
2018-03-21T19:21:25.878Z,19.60
2018-03-21T19:23:53.351Z,19.60
2018-03-21T19:26:20.899Z,19.70
2018-03-21T19:28:48.433Z,19.90
2018-03-21T19:31:16.696Z,19.70
2018-03-21T19:33:44.950Z,20.10
2018-03-21T19:36:12.450Z,20.00
2018-03-21T19:38:39.926Z,20.20
2018-03-21T19:41:07.454Z,19.80
2018-03-21T19:43:34.917Z,19.50
2018-03-21T19:46:02.435Z,19.40
2018-03-21T19:48:31.505Z,19.80
2018-03-21T19:51:01.629Z,20.10
2018-03-21T19:53:29.127Z,20.10
2018-03-21T19:55:56.628Z,20.10
2018-03-21T19:58:24.148Z,19.60
2018-03-21T20:00:51.626Z,19.50
2018-03-21T20:03:19.127Z,19.30
2018-03-21T20:05:46.763Z,19.40
2018-03-21T20:08:14.305Z,19.20
2018-03-21T20:10:42.555Z,19.30
2018-03-21T20:13:10.198Z,19.30
2018-03-21T20:15:37.824Z,19.50
2018-03-21T20:18:06.109Z,19.90
2018-03-21T20:20:33.647Z,20.00
2018-03-21T20:23:01.177Z,20.00
2018-03-21T20:25:29.449Z,20.20
2018-03-21T20:27:58.779Z,20.30
2018-03-21T20:30:27.062Z,20.30
2018-03-21T20:32:54.769Z,20.30
2018-03-21T20:35:22.274Z,20.50
2018-03-21T20:37:49.760Z,20.50
2018-03-21T20:40:17.371Z,21.00
2018-03-21T20:42:45.646Z,20.70
2018-03-21T20:45:13.174Z,20.70
2018-03-21T20:47:40.628Z,21.30
2018-03-21T20:50:08.121Z,20.90
2018-03-21T20:52:35.596Z,20.80
2018-03-21T20:55:03.923Z,20.80
2018-03-21T20:57:32.235Z,21.20
2018-03-21T20:59:59.725Z,21.00
2018-03-21T21:02:28.330Z,20.90
2018-03-21T21:04:56.664Z,21.80
2018-03-21T21:07:24.131Z,21.80
2018-03-21T21:09:51.601Z,22.10
2018-03-21T21:12:19.081Z,22.50
2018-03-21T21:14:47.363Z,23.10
2018-03-21T21:17:14.857Z,22.70
2018-03-21T21:19:43.195Z,23.40
2018-03-21T21:22:10.687Z,23.40
2018-03-21T21:24:38.211Z,23.60
2018-03-21T21:27:05.695Z,23.70
2018-03-21T21:29:33.210Z,23.50
2018-03-21T21:32:00.709Z,23.50
2018-03-21T21:34:29.007Z,23.80
2018-03-21T21:36:56.507Z,23.90
2018-03-21T21:39:23.996Z,24.30
2018-03-21T21:41:51.521Z,25.10
2018-03-21T21:44:19.779Z,24.60
2018-03-21T21:46:47.268Z,24.30
2018-03-21T21:49:15.677Z,24.30
2018-03-21T21:51:43.182Z,24.30
2018-03-21T21:54:10.667Z,24.30
2018-03-21T21:56:38.124Z,24.40
2018-03-21T21:59:05.619Z,24.40
2018-03-21T22:01:33.134Z,24.30
2018-03-21T22:04:00.635Z,24.40
2018-03-21T22:06:28.188Z,24.40
2018-03-21T22:08:55.702Z,24.50
2018-03-21T22:11:23.173Z,24.70
2018-03-21T22:13:51.720Z,24.70
2018-03-21T22:16:19.228Z,24.70
2018-03-21T22:18:46.718Z,24.50
2018-03-21T22:21:14.261Z,24.60
2018-03-21T22:23:41.770Z,24.80
2018-03-21T22:26:09.248Z,24.60
2018-03-21T22:28:37.492Z,24.40
2018-03-21T22:31:05.032Z,24.40
2018-03-21T22:33:32.514Z,24.50
2018-03-21T22:36:00.145Z,24.60
2018-03-21T22:38:27.714Z,24.70
2018-03-21T22:40:55.202Z,24.60
2018-03-21T22:43:23.433Z,24.50
2018-03-21T22:45:51.037Z,24.50
2018-03-21T22:48:18.502Z,24.60
2018-03-21T22:50:46.157Z,24.60
2018-03-21T22:53:13.703Z,24.70
2018-03-21T22:55:41.266Z,24.70
2018-03-21T22:58:09.538Z,24.60
2018-03-21T23:00:37.800Z,24.80
2018-03-21T23:03:05.295Z,24.80
2018-03-21T23:05:32.866Z,24.80
2018-03-21T23:08:00.370Z,24.90
2018-03-21T23:10:27.828Z,24.70
2018-03-21T23:12:56.086Z,24.60
2018-03-21T23:15:23.624Z,24.60
2018-03-21T23:17:51.098Z,24.60
2018-03-21T23:20:18.643Z,24.80
2018-03-21T23:22:46.150Z,24.70
2018-03-21T23:25:13.614Z,24.90
2018-03-21T23:27:41.104Z,25.20
2018-03-21T23:30:08.566Z,25.20
2018-03-21T23:32:36.042Z,25.00
2018-03-21T23:35:03.570Z,25.30
2018-03-21T23:37:31.099Z,25.10
2018-03-21T23:39:58.588Z,24.80
2018-03-21T23:42:26.062Z,25.10
2018-03-21T23:44:54.307Z,25.50
2018-03-21T23:47:21.819Z,25.30
2018-03-21T23:49:49.375Z,25.30
2018-03-21T23:52:16.858Z,25.90
2018-03-21T23:54:44.343Z,25.50
2018-03-21T23:57:12.579Z,25.60
2018-03-21T23:59:40.082Z,25.60
